Time;durP1;ratioP1;P1;durP2;ratioP2;P2;SDS_P1;SDS_P2;PMS_P1;PMS_P2;Temp;Humidity;BMP_temperature;BMP_pressure;BME280_temperature;BME280_humidity;BME280_pressure;Samples;Min_cycle;Max_cycle;Signal;HPM_P1;HPM_P2
2023/12/09 00:02:11;;;;;;;;;71.33;52.33;;;;;1.51;100.00;99988.44;6282372;20;3643073;-51
2023/12/09 00:04:40;;;;;;;;;70.00;56.00;;;;;1.50;100.00;99986.69;6312476;20;2874249;-49
2023/12/09 00:07:09;;;;;;;;;73.00;56.00;;;;;1.64;100.00;99993.50;6277238;20;2867038;-53
2023/12/09 00:09:39;;;;;;;;;71.67;54.00;;;;;1.36;100.00;99994.03;6279213;20;2887989;-51
2023/12/09 00:12:08;;;;;;;;;70.00;55.00;;;;;1.22;100.00;99993.41;6313936;20;2885799;-48
2023/12/09 00:14:38;;;;;;;;;77.33;54.67;;;;;1.58;100.00;99993.59;6309852;20;3645015;-50
2023/12/09 00:17:07;;;;;;;;;67.00;53.00;;;;;1.43;100.00;99992.16;6313285;20;2870217;-50
2023/12/09 00:19:37;;;;;;;;;69.00;55.33;;;;;1.58;100.00;99993.59;6278095;20;2879661;-50
2023/12/09 00:22:07;;;;;;;;;77.33;59.33;;;;;1.60;100.00;99986.50;6313095;20;2881743;-51
2023/12/09 00:24:36;;;;;;;;;78.33;59.00;;;;;1.76;100.00;99982.63;6311590;20;3639864;-50
2023/12/09 00:27:06;;;;;;;;;80.33;57.00;;;;;1.52;100.00;99982.22;6312950;20;3649061;-51
2023/12/09 00:29:36;;;;;;;;;76.33;59.00;;;;;1.60;100.00;99983.84;6311556;20;2885740;-52
2023/12/09 00:32:06;;;;;;;;;74.00;57.00;;;;;1.44;100.00;99975.34;6307742;20;2881837;-53
2023/12/09 00:34:35;;;;;;;;;78.00;59.67;;;;;1.41;100.00;99978.06;6309855;20;3644068;-49
2023/12/09 00:37:05;;;;;;;;;79.00;60.33;;;;;1.52;100.00;99981.38;6310987;20;3636773;-48
2023/12/09 00:39:34;;;;;;;;;73.00;59.00;;;;;1.44;100.00;99981.50;6310950;20;2866979;-51
2023/12/09 00:42:04;;;;;;;;;75.67;57.67;;;;;1.42;100.00;99982.44;6278719;20;3643027;-51
2023/12/09 00:44:34;;;;;;;;;82.67;60.33;;;;;1.09;100.00;99985.69;6310007;20;3646098;-48
2023/12/09 00:47:04;;;;;;;;;84.00;62.00;;;;;1.20;100.00;99982.00;6312477;20;3657692;-49
2023/12/09 00:49:33;;;;;;;;;86.33;64.33;;;;;1.18;100.00;99989.06;6311673;20;3657568;-49
2023/12/09 00:52:03;;;;;;;;;78.50;63.00;;;;;1.33;100.00;99980.84;6309872;20;2874222;-48
2023/12/09 00:54:33;;;;;;;;;90.67;67.00;;;;;1.21;100.00;99983.72;6280457;20;3646109;-48
2023/12/09 00:57:03;;;;;;;;;87.67;62.33;;;;;1.24;100.00;99975.75;6311930;20;3658088;-49
2023/12/09 00:59:34;;;;;;;;;83.67;65.67;;;;;1.45;100.00;99982.38;6311322;20;3639831;-49
2023/12/09 01:02:03;;;;;;;;;82.33;63.33;;;;;1.29;100.00;99990.63;6311265;20;3640902;-50
2023/12/09 01:04:33;;;;;;;;;83.67;62.00;;;;;1.51;100.00;99983.16;6311308;20;3645149;-48
2023/12/09 01:07:03;;;;;;;;;82.00;64.67;;;;;1.50;100.00;99983.16;6310993;20;2878532;-51
2023/12/09 01:09:33;;;;;;;;;83.00;64.00;;;;;1.30;100.00;99980.91;6310658;20;3649185;-49
2023/12/09 01:12:04;;;;;;;;;84.00;64.67;;;;;1.32;100.00;99981.78;6310548;20;3642389;-48
2023/12/09 01:14:34;;;;;;;;;89.00;65.00;;;;;1.19;100.00;99985.56;6310961;20;3648188;-51
2023/12/09 01:17:04;;;;;;;;;86.67;63.00;;;;;1.61;100.00;99991.78;6311407;20;3659831;-53
2023/12/09 01:19:34;;;;;;;;;80.67;62.00;;;;;1.71;100.00;99981.84;6310881;20;3629998;-52
2023/12/09 01:22:04;;;;;;;;;78.50;61.50;;;;;1.76;100.00;99982.63;6310860;20;3623165;-50
2023/12/09 01:24:33;;;;;;;;;83.00;61.67;;;;;1.52;100.00;99984.00;6308394;20;2892122;-50
2023/12/09 01:27:03;;;;;;;;;81.33;61.00;;;;;1.49;100.00;99984.94;6311097;20;3646081;-48
2023/12/09 01:29:32;;;;;;;;;75.50;61.00;;;;;1.46;100.00;99979.72;6309795;20;2879841;-49
2023/12/09 01:32:02;;;;;;;;;83.00;64.33;;;;;1.53;100.00;99984.00;6278618;20;2889908;-49
2023/12/09 01:34:34;;;;;;;;;88.00;64.67;;;;;1.61;100.00;99970.59;6309436;20;3659710;-47
2023/12/09 01:37:04;;;;;;;;;83.33;63.67;;;;;1.51;100.00;99977.84;6311803;20;3650283;-53
2023/12/09 01:39:33;;;;;;;;;83.67;64.00;;;;;1.78;100.00;99969.38;6306897;20;3635708;-50
2023/12/09 01:42:03;;;;;;;;;83.33;57.00;;;;;2.19;100.00;99965.81;6310605;20;3648646;-49
2023/12/09 01:44:33;;;;;;;;;84.00;62.67;;;;;1.56;100.00;99972.47;6310380;20;3651318;-48
2023/12/09 01:47:04;;;;;;;;;83.67;61.33;;;;;1.50;100.00;99975.22;6277549;20;3652402;-47
2023/12/09 01:49:35;;;;;;;;;81.00;61.67;;;;;1.43;100.00;99977.13;6307137;20;3634632;-51
2023/12/09 01:52:06;;;;;;;;;79.33;61.00;;;;;1.50;100.00;99969.94;6307988;20;2884659;-48
2023/12/09 01:54:36;;;;;;;;;82.00;59.33;;;;;1.64;100.00;99972.31;6310600;20;3656552;-51
2023/12/09 01:57:06;;;;;;;;;82.00;63.33;;;;;1.46;100.00;99974.41;6310995;20;3635716;-48
2023/12/09 01:59:37;;;;;;;;;83.00;65.33;;;;;1.31;100.00;99972.06;6310329;20;2881786;-51
2023/12/09 02:02:08;;;;;;;;;84.67;64.00;;;;;1.44;100.00;99970.06;6310619;20;3646222;-49
2023/12/09 02:04:37;;;;;;;;;88.00;62.00;;;;;1.49;100.00;99966.41;6312554;20;3661773;-48
2023/12/09 02:07:07;;;;;;;;;79.33;60.00;;;;;1.50;100.00;99965.53;6308604;20;2893058;-49
2023/12/09 02:09:41;;;;;;;;;76.67;60.67;;;;;1.48;100.00;99966.47;6308772;20;2882838;-50
2023/12/09 02:12:27;;;;;;;;;73.33;58.33;;;;;1.65;100.00;99968.75;6311202;20;2878598;-51
2023/12/09 02:15:24;;;;;;;;;78.00;59.00;;;;;1.34;100.00;99964.06;6309268;20;3641946;-52
2023/12/09 02:18:02;;;;;;;;;83.33;61.67;;;;;1.35;100.00;99964.97;6309390;20;3656545;-50
2023/12/09 02:20:32;;;;;;;;;80.00;61.67;;;;;1.47;100.00;99968.22;6305635;20;3648163;-48
2023/12/09 02:23:10;;;;;;;;;83.67;61.00;;;;;1.34;100.00;99964.06;6308069;20;3657535;-53
2023/12/09 02:25:40;;;;;;;;;76.33;59.33;;;;;1.48;100.00;99967.34;6311207;20;2878485;-49
2023/12/09 02:28:29;;;;;;;;;78.67;59.00;;;;;1.35;100.00;99965.84;6307121;20;3640964;-48
2023/12/09 02:31:15;;;;;;;;;82.67;60.00;;;;;1.38;100.00;99963.13;6304416;20;2886835;-52
2023/12/09 02:33:44;;;;;;;;;72.50;61.00;;;;;1.31;100.00;99975.59;6309159;20;2875248;-51
2023/12/09 02:36:20;;;;;;;;;67.50;57.00;;;;;1.46;100.00;99969.13;6275490;20;2866011;-52
2023/12/09 02:38:52;;;;;;;;;81.33;62.33;;;;;1.69;100.00;99966.03;6274459;20;3642987;-49
2023/12/09 02:41:22;;;;;;;;;78.33;59.00;;;;;1.65;100.00;99968.75;6305420;20;3638787;-48
2023/12/09 02:43:51;;;;;;;;;78.00;59.00;;;;;1.59;100.00;99974.19;6303954;20;3640877;-52
2023/12/09 02:46:21;;;;;;;;;85.33;59.00;;;;;1.75;100.00;99968.53;6301667;20;3657567;-51
2023/12/09 02:48:51;;;;;;;;;75.00;58.00;;;;;1.64;100.00;99969.69;6309725;20;2883873;-49
2023/12/09 02:51:21;;;;;;;;;76.33;59.67;;;;;1.33;100.00;99966.75;6307229;20;2878659;-52
2023/12/09 02:53:50;;;;;;;;;77.33;61.67;;;;;1.47;100.00;99981.44;6307285;20;2879560;-50
2023/12/09 02:56:21;;;;;;;;;79.67;58.00;;;;;1.47;100.00;99975.28;6304821;20;2895116;-51
2023/12/09 02:58:50;;;;;;;;;69.33;49.33;;;;;1.37;100.00;99979.00;6308945;20;2873220;-43
2023/12/09 03:01:20;;;;;;;;;75.00;59.33;;;;;1.42;100.00;99978.06;6307053;20;2887764;-45
2023/12/09 03:03:49;;;;;;;;;75.50;58.50;;;;;1.41;100.00;99992.16;6308827;20;2881551;-42
2023/12/09 03:06:19;;;;;;;;;75.67;59.00;;;;;1.44;100.00;99991.22;6276560;20;2878504;-42
2023/12/09 03:08:48;;;;;;;;;82.67;59.00;;;;;1.48;100.00;99985.84;6311250;20;3651437;-43
2023/12/09 03:11:18;;;;;;;;;78.33;59.00;;;;;1.67;100.00;99990.78;6314751;20;2883690;-42
2023/12/09 03:13:47;;;;;;;;;84.50;65.50;;;;;1.84;100.00;99985.13;6314837;20;2871162;-43
2023/12/09 03:16:17;;;;;;;;;89.33;66.33;;;;;1.54;100.00;99977.78;6280345;20;3640912;-43
2023/12/09 03:18:49;;;;;;;;;86.33;66.33;;;;;1.08;100.00;99993.69;6311433;20;3631526;-44
2023/12/09 03:21:19;;;;;;;;;76.00;59.33;;;;;1.36;100.00;99994.03;6311781;20;3640997;-43
2023/12/09 03:23:49;;;;;;;;;83.00;60.00;;;;;1.51;100.00;99987.56;6313387;20;3653354;-43
2023/12/09 03:26:20;;;;;;;;;78.00;60.00;;;;;1.34;100.00;99990.53;6311800;20;2887911;-42
2023/12/09 03:28:49;;;;;;;;;82.67;61.00;;;;;1.25;100.00;99990.72;6314585;20;3644004;-44
2023/12/09 03:31:20;;;;;;;;;79.00;61.00;;;;;1.30;100.00;99995.00;6312493;20;2883615;-43
2023/12/09 03:33:50;;;;;;;;;76.33;59.33;;;;;1.50;100.00;99999.94;6313340;20;2883616;-45
2023/12/09 03:36:20;;;;;;;;;87.67;61.33;;;;;1.25;100.00;99991.59;6311098;20;3653486;-41
2023/12/09 03:38:49;;;;;;;;;80.33;61.33;;;;;1.41;100.00;99986.00;6310673;20;2888953;-43
2023/12/09 03:41:19;;;;;;;;;83.33;62.00;;;;;1.23;100.00;99992.50;6311453;20;3656583;-42
2023/12/09 03:43:52;;;;;;;;;81.33;60.33;;;;;1.70;100.00;99996.88;6312858;20;3638787;-43
2023/12/09 03:46:22;;;;;;;;;70.50;57.00;;;;;1.49;100.00;99992.88;6313228;20;2869135;-43
2023/12/09 03:48:51;;;;;;;;;85.67;63.00;;;;;1.30;100.00;99996.78;6281848;20;3656496;-42
2023/12/09 03:51:21;;;;;;;;;87.67;64.67;;;;;1.23;100.00;100003.09;6312317;20;3653389;-42
2023/12/09 03:53:51;;;;;;;;;84.00;61.67;;;;;1.26;100.00;100001.28;6279975;20;3660751;-42
2023/12/09 03:56:23;;;;;;;;;83.00;66.00;;;;;0.93;100.00;99993.94;6313961;20;2870175;-42
2023/12/09 03:58:53;;;;;;;;;87.67;61.33;;;;;1.23;100.00;99995.16;6282373;20;3646138;-42
2023/12/09 04:01:24;;;;;;;;;84.67;64.00;;;;;1.33;100.00;99999.38;6311415;20;3636717;-43
2023/12/09 04:03:53;;;;;;;;;77.50;60.00;;;;;1.29;100.00;99997.66;6312617;20;2878384;-43
2023/12/09 04:06:23;;;;;;;;;81.67;59.00;;;;;1.32;100.00;99997.63;6278897;20;2891931;-41
2023/12/09 04:08:52;;;;;;;;;79.50;62.00;;;;;1.12;100.00;100002.41;6312860;20;2880477;-42
2023/12/09 04:11:22;;;;;;;;;92.67;62.67;;;;;1.18;100.00;99999.66;6279903;20;3652326;-43
2023/12/09 04:13:52;;;;;;;;;85.00;61.33;;;;;1.27;100.00;99999.50;6312916;20;3643998;-45
2023/12/09 04:16:21;;;;;;;;;83.33;61.67;;;;;1.30;100.00;99995.00;6308696;20;3651318;-41
2023/12/09 04:18:51;;;;;;;;;84.33;62.67;;;;;1.48;100.00;99996.44;6308864;20;3656572;-43
2023/12/09 04:21:21;;;;;;;;;85.00;65.33;;;;;1.37;100.00;100003.72;6312422;20;3636785;-44
2023/12/09 04:23:52;;;;;;;;;200.25;164.50;;;;;1.42;100.00;99999.22;6307588;20;3703559;-43
2023/12/09 04:26:23;;;;;;;;;160.50;136.00;;;;;1.51;100.00;100000.81;6279358;20;4514794;-45
2023/12/09 04:28:54;;;;;;;;;419.50;321.00;;;;;1.20;100.00;100008.44;6279712;20;4553373;-43
2023/12/09 04:31:24;;;;;;;;;223.33;170.00;;;;;1.51;100.00;100003.44;6277939;20;3679510;-42
2023/12/09 04:33:55;;;;;;;;;449.00;313.50;;;;;1.42;100.00;100007.16;6281594;20;4545024;-42
2023/12/09 04:36:26;;;;;;;;;455.25;305.50;;;;;1.39;100.00;100009.81;6279163;20;4536684;-42
2023/12/09 04:38:57;;;;;;;;;471.25;337.50;;;;;1.21;100.00;100005.78;6278848;20;4526342;-43
2023/12/09 04:41:25;;;;;;;;;155.00;124.00;;;;;1.28;100.00;100002.09;6272584;20;1955534;-43
2023/12/09 04:43:54;;;;;;;;;99.00;70.67;;;;;1.25;100.00;100011.88;6278349;20;3666886;-44
2023/12/09 04:46:25;;;;;;;;;176.00;143.00;;;;;1.46;100.00;100006.16;6279061;20;4487115;-42
2023/12/09 04:48:56;;;;;;;;;109.25;89.25;;;;;1.28;100.00;100003.88;6279971;20;3701359;-43
2023/12/09 04:51:27;;;;;;;;;91.00;66.33;;;;;1.33;100.00;100009.94;6309873;20;3651396;-44
2023/12/09 04:53:57;;;;;;;;;93.67;70.00;;;;;1.47;100.00;100007.91;6310019;20;3662875;-43
2023/12/09 04:56:26;;;;;;;;;96.67;70.00;;;;;1.39;100.00;100009.81;6312968;20;3657578;-43
2023/12/09 04:58:56;;;;;;;;;85.00;65.33;;;;;1.30;100.00;100004.72;6311535;20;3655557;-44
2023/12/09 05:01:26;;;;;;;;;91.33;66.00;;;;;1.38;100.00;100001.94;6277935;20;3664836;-42
2023/12/09 05:03:56;;;;;;;;;88.67;66.33;;;;;1.41;100.00;100001.88;6312811;20;3655434;-43
2023/12/09 05:06:26;;;;;;;;;85.33;65.67;;;;;1.19;100.00;99997.00;6310341;20;3630441;-42
2023/12/09 05:08:56;;;;;;;;;89.33;64.33;;;;;1.05;100.00;100010.47;6311809;20;3653589;-44
2023/12/09 05:11:26;;;;;;;;;94.33;68.00;;;;;0.83;100.00;100009.09;6312944;20;3653507;-44
2023/12/09 05:13:56;;;;;;;;;108.33;91.00;;;;;1.07;100.00;100008.66;6311764;20;3700236;-43
2023/12/09 05:16:27;;;;;;;;;92.00;70.00;;;;;1.11;100.00;100009.47;6276449;20;3638825;-43
2023/12/09 05:18:57;;;;;;;;;254.67;199.00;;;;;1.44;100.00;100015.91;6311232;20;3687767;-43
2023/12/09 05:21:27;;;;;;;;;311.33;247.67;;;;;1.09;100.00;100022.72;6280950;20;3735694;-43
2023/12/09 05:24:05;;;;;;;;;152.25;122.00;;;;;1.36;100.00;100020.47;6280025;20;4479534;-44
2023/12/09 05:26:37;;;;;;;;;389.00;293.25;;;;;1.33;100.00;100015.25;6279983;20;4520088;-43
2023/12/09 05:29:07;;;;;;;;;230.00;182.67;;;;;1.44;100.00;100017.69;6277815;20;3705502;-42
2023/12/09 05:31:36;;;;;;;;;103.33;78.00;;;;;1.25;100.00;100027.75;6277692;20;3686733;-43
2023/12/09 05:34:06;;;;;;;;;102.00;71.00;;;;;1.23;100.00;100029.53;6278041;20;3689824;-44
2023/12/09 05:36:38;;;;;;;;;98.00;71.33;;;;;1.22;100.00;100033.97;6278254;20;3663803;-43
2023/12/09 05:39:08;;;;;;;;;102.33;87.33;;;;;1.05;100.00;100026.34;6310055;20;3661731;-43
2023/12/09 05:41:42;;;;;;;;;107.33;85.00;;;;;1.34;100.00;100031.97;6277120;20;3705451;-43
2023/12/09 05:44:11;;;;;;;;;103.33;83.00;;;;;1.46;100.00;100043.22;6277769;20;3682709;-43
2023/12/09 05:46:42;;;;;;;;;109.50;90.75;;;;;1.62;100.00;100037.63;6281123;20;3684680;-43
2023/12/09 05:49:12;;;;;;;;;106.33;73.67;;;;;1.50;100.00;100039.63;6309719;20;3693991;-42
2023/12/09 05:51:42;;;;;;;;;98.00;71.33;;;;;1.57;100.00;100045.66;6278060;20;3673187;-42
2023/12/09 05:54:12;;;;;;;;;93.33;73.33;;;;;1.65;100.00;100034.91;6275794;20;3643061;-43
2023/12/09 05:56:52;;;;;;;;;110.75;85.25;;;;;1.23;100.00;100035.69;6308447;20;3704610;-43
2023/12/09 05:59:22;;;;;;;;;115.67;95.00;;;;;1.44;100.00;100036.19;6276394;20;3680473;-43
2023/12/09 06:01:54;;;;;;;;;135.25;114.00;;;;;1.16;100.00;100042.00;6277435;20;4493057;-43
2023/12/09 06:04:24;;;;;;;;;109.67;87.33;;;;;1.24;100.00;100031.31;6277754;20;3686779;-44
2023/12/09 06:06:54;;;;;;;;;103.33;80.33;;;;;1.24;100.00;100031.31;6279361;20;3687779;-45
2023/12/09 06:09:24;;;;;;;;;102.67;78.00;;;;;1.35;100.00;100024.03;6279014;20;3683633;-46
2023/12/09 06:11:53;;;;;;;;;103.00;76.33;;;;;1.40;100.00;100027.47;6278453;20;3695043;-42
2023/12/09 06:14:23;;;;;;;;;98.00;70.33;;;;;1.43;100.00;100037.13;6279221;20;3655686;-42
2023/12/09 06:16:53;;;;;;;;;105.33;76.67;;;;;1.44;100.00;100037.06;6274980;20;3686898;-43
2023/12/09 06:19:23;;;;;;;;;98.00;71.33;;;;;1.34;100.00;100038.13;6276668;20;3674247;-43
2023/12/09 06:21:54;;;;;;;;;98.00;78.33;;;;;1.60;100.00;100042.06;6277053;20;3657550;-44
2023/12/09 06:24:24;;;;;;;;;104.67;78.00;;;;;1.37;100.00;100030.16;6271044;20;3690855;-43
2023/12/09 06:26:56;;;;;;;;;92.67;66.67;;;;;1.57;100.00;100042.13;6277459;20;3647147;-43
2023/12/09 06:29:28;;;;;;;;;103.00;70.67;;;;;1.35;100.00;100028.47;6307762;20;3684735;-42
2023/12/09 06:31:58;;;;;;;;;99.00;71.33;;;;;1.30;100.00;100033.81;6276294;20;3669001;-43
2023/12/09 06:34:27;;;;;;;;;94.67;70.00;;;;;1.44;100.00;100036.19;6274315;20;3657570;-43
2023/12/09 06:36:57;;;;;;;;;94.33;71.00;;;;;1.60;100.00;100034.13;6310117;20;3667962;-43
2023/12/09 06:39:27;;;;;;;;;99.67;71.00;;;;;1.46;100.00;100031.75;6273873;20;3678462;-43
2023/12/09 06:41:57;;;;;;;;;99.67;80.33;;;;;1.40;100.00;100035.41;6278675;20;3670057;-43
2023/12/09 06:44:27;;;;;;;;;101.33;77.00;;;;;1.58;100.00;100035.94;6278459;20;3687795;-43
2023/12/09 06:46:57;;;;;;;;;106.00;74.33;;;;;1.40;100.00;100038.03;6277221;20;3691590;-44
2023/12/09 06:49:26;;;;;;;;;92.67;71.67;;;;;1.14;100.00;100035.00;6278825;20;3653370;-42
2023/12/09 06:51:56;;;;;;;;;99.33;71.67;;;;;1.27;100.00;100041.81;6313990;20;3672246;-43
2023/12/09 06:54:26;;;;;;;;;98.67;72.67;;;;;1.58;100.00;100042.13;6280504;20;3673696;-43
2023/12/09 06:56:57;;;;;;;;;112.33;90.67;;;;;1.16;100.00;100042.00;6279450;20;3686703;-43
2023/12/09 06:59:26;;;;;;;;;104.00;81.00;;;;;1.71;100.00;100037.44;6282326;20;3677336;-43
2023/12/09 07:01:57;;;;;;;;;95.67;70.33;;;;;1.25;100.00;100043.59;6282327;20;3646218;-42
2023/12/09 07:04:27;;;;;;;;;103.00;72.00;;;;;1.27;100.00;100049.75;6313186;20;3689924;-43
2023/12/09 07:07:01;;;;;;;;;86.33;64.33;;;;;1.52;100.00;100048.38;6280945;20;3677327;-45
2023/12/09 07:09:31;;;;;;;;;87.33;65.67;;;;;1.85;100.00;100055.72;6313876;20;3632605;-43
2023/12/09 07:12:00;;;;;;;;;87.67;62.33;;;;;1.92;100.00;100052.91;6312785;20;3651324;-43
2023/12/09 07:14:31;;;;;;;;;94.67;68.33;;;;;1.48;100.00;100048.50;6313309;20;3666923;-43
2023/12/09 07:17:01;;;;;;;;;91.00;67.00;;;;;1.84;100.00;100049.53;6280921;20;3658676;-43
2023/12/09 07:19:30;;;;;;;;;86.00;62.33;;;;;1.42;100.00;100052.13;6314187;20;3654531;-43
2023/12/09 07:22:03;;;;;;;;;88.00;60.00;;;;;1.53;100.00;100050.16;6313768;20;3656619;-42
2023/12/09 07:24:33;;;;;;;;;92.67;65.00;;;;;1.44;100.00;100039.72;6309686;20;3639887;-43
2023/12/09 07:27:03;;;;;;;;;99.67;74.00;;;;;1.62;100.00;100053.50;6313404;20;3677393;-43
2023/12/09 07:29:33;;;;;;;;;87.33;59.33;;;;;1.66;100.00;100056.06;6278846;20;3659674;-43
2023/12/09 07:32:04;;;;;;;;;0.00;0.00;;;;;1.89;100.00;100052.94;6356418;20;2645177;-42
2023/12/09 07:34:34;;;;;;;;;85.67;61.67;;;;;1.94;100.00;100056.38;6311698;20;3661711;-42
2023/12/09 07:37:04;;;;;;;;;90.67;65.67;;;;;1.59;100.00;100064.16;6312389;20;3651523;-42
2023/12/09 07:39:34;;;;;;;;;84.00;58.00;;;;;1.32;100.00;100055.84;6311870;20;3656488;-42
2023/12/09 07:42:04;;;;;;;;;78.33;60.67;;;;;1.43;100.00;100051.22;6313067;20;2885876;-41
2023/12/09 07:44:34;;;;;;;;;82.00;56.33;;;;;1.57;100.00;100055.38;6311771;20;3658579;-44
2023/12/09 07:47:03;;;;;;;;;72.00;55.00;;;;;1.97;100.00;100061.63;6313291;20;2774279;-43
2023/12/09 07:49:33;;;;;;;;;70.67;55.67;;;;;1.91;100.00;100053.81;6279670;20;3634699;-42
2023/12/09 07:52:04;;;;;;;;;85.67;59.33;;;;;2.15;100.00;100049.75;6312803;20;3651394;-43
2023/12/09 07:54:33;;;;;;;;;71.67;55.67;;;;;1.73;100.00;100056.81;6312017;20;2881541;-44
2023/12/09 07:57:03;;;;;;;;;80.00;55.33;;;;;1.65;100.00;100053.44;6312866;20;3648308;-43
2023/12/09 07:59:33;;;;;;;;;70.67;52.33;;;;;2.06;100.00;100059.69;6313182;20;3644178;-43
2023/12/09 08:02:03;;;;;;;;;76.33;57.67;;;;;1.98;100.00;100063.38;6314078;20;2886018;-44
2023/12/09 08:04:33;;;;;;;;;94.33;69.00;;;;;1.90;100.00;100056.50;6311896;20;3635731;-43
2023/12/09 08:07:03;;;;;;;;;81.33;60.00;;;;;1.65;100.00;100061.38;6311323;20;3639929;-42
2023/12/09 08:09:33;;;;;;;;;87.33;60.67;;;;;1.82;100.00;100066.34;6312145;20;3644096;-43
2023/12/09 08:12:03;;;;;;;;;80.00;55.00;;;;;1.61;100.00;100062.38;6313315;20;3648221;-42
2023/12/09 08:14:33;;;;;;;;;83.67;58.00;;;;;2.00;100.00;100065.97;6311350;20;3647149;-43
2023/12/09 08:17:03;;;;;;;;;80.00;55.67;;;;;1.77;100.00;100058.50;6312837;20;3649345;-43
2023/12/09 08:19:33;;;;;;;;;76.33;52.67;;;;;1.72;100.00;100060.38;6309999;20;3643177;-43
2023/12/09 08:22:03;;;;;;;;;71.33;51.00;;;;;1.67;100.00;100057.81;6312814;20;3647249;-43
2023/12/09 08:24:33;;;;;;;;;70.00;54.00;;;;;1.87;100.00;100054.78;6311976;20;3622278;-43
2023/12/09 08:27:03;;;;;;;;;64.00;48.00;;;;;2.45;100.00;100057.06;6313896;20;2870137;-43
2023/12/09 08:29:32;;;;;;;;;62.00;51.00;;;;;2.23;100.00;100056.69;6279412;20;2870128;-43
2023/12/09 08:32:01;;;;;;;;;65.50;51.00;;;;;2.13;100.00;100058.66;6274784;20;2493055;-43
2023/12/09 08:34:30;;;;;;;;;74.00;53.67;;;;;1.88;100.00;100061.81;6281031;20;3635067;-44
2023/12/09 08:37:00;;;;;;;;;96.00;70.67;;;;;1.81;100.00;100060.19;6311252;20;3655600;-44
2023/12/09 08:39:28;;;;;;;;;173.00;126.00;;;;;1.90;100.00;100059.16;6269809;20;1957634;-42
2023/12/09 08:41:58;;;;;;;;;71.67;51.67;;;;;1.78;100.00;100049.66;6279216;20;3634597;-43
2023/12/09 08:44:28;;;;;;;;;101.67;78.67;;;;;2.27;100.00;100053.06;6310575;20;3692995;-44
2023/12/09 08:46:57;;;;;;;;;101.00;82.33;;;;;1.92;100.00;100049.38;6279061;20;3682533;-43
2023/12/09 08:49:30;;;;;;;;;73.67;54.67;;;;;1.85;100.00;100051.28;6272028;20;3634746;-42
2023/12/09 08:51:59;;;;;;;;;93.00;68.33;;;;;2.22;100.00;100049.66;6310727;20;3661702;-43
2023/12/09 08:54:29;;;;;;;;;78.33;57.67;;;;;2.09;100.00;100054.34;6312825;20;3642059;-42
2023/12/09 08:56:59;;;;;;;;;79.67;57.00;;;;;2.09;100.00;100055.19;6312412;20;2878628;-42
2023/12/09 08:59:29;;;;;;;;;65.67;51.33;;;;;2.11;100.00;100052.53;6313369;20;2858694;-41
2023/12/09 09:01:58;;;;;;;;;73.00;53.00;;;;;2.02;100.00;100052.72;6314915;20;3635740;-43
2023/12/09 09:04:28;;;;;;;;;65.00;49.00;;;;;2.24;100.00;100053.13;6311475;20;2882122;-44
2023/12/09 09:06:58;;;;;;;;;73.00;52.33;;;;;2.04;100.00;100051.78;6312188;20;3642987;-43
2023/12/09 09:09:27;;;;;;;;;75.67;52.00;;;;;1.95;100.00;100047.56;6310217;20;3654498;-43
2023/12/09 09:11:55;;;;;;;;;200.00;159.00;;;;;2.96;100.00;100049.69;6286351;20;1958711;-45
2023/12/09 09:14:25;;;;;;;;;66.33;49.33;;;;;2.19;100.00;100043.50;6280621;20;2885784;-45
2023/12/09 09:16:55;;;;;;;;;66.33;47.00;;;;;2.54;100.00;100046.28;6313534;20;3634673;-43
2023/12/09 09:19:24;;;;;;;;;56.50;43.00;;;;;2.00;100.00;100046.56;6311728;20;2849263;-45
2023/12/09 09:21:53;;;;;;;;;57.00;45.50;;;;;2.08;100.00;100042.88;6282530;20;2864992;-46
2023/12/09 09:24:23;;;;;;;;;67.33;46.33;;;;;2.40;100.00;100039.50;6281488;20;2880531;-42
2023/12/09 09:26:52;;;;;;;;;89.33;66.67;;;;;2.54;100.00;100040.97;6311093;20;3653479;-43
2023/12/09 09:29:23;;;;;;;;;93.67;69.67;;;;;2.84;100.00;100032.31;6312306;20;3665918;-44
2023/12/09 09:31:53;;;;;;;;;89.33;65.67;;;;;3.28;100.00;100035.59;6277813;20;3636789;-43
2023/12/09 09:34:21;;;;;;;;;55.00;43.00;;;;;3.00;100.00;100031.91;6309615;20;2492999;-44
2023/12/09 09:36:51;;;;;;;;;63.00;49.00;;;;;3.06;100.00;100029.13;6280806;20;2876314;-43
2023/12/09 09:39:19;;;;;;;;;52.50;40.50;;;;;3.36;100.00;100037.19;6279122;20;2503426;-43
2023/12/09 09:42:06;;;;;;;;;62.00;46.00;;;;;2.74;100.00;100033.44;6281795;20;2879395;-44
2023/12/09 09:44:54;;;;;;;;;58.50;43.00;;;;;2.92;100.00;100031.22;6279059;20;2855589;-42
2023/12/09 09:47:25;;;;;;;;;64.67;48.33;;;;;3.00;100.00;100018.63;6276698;20;3632592;-43
2023/12/09 09:49:54;;;;;;;;;48.00;41.50;;;;;3.56;100.00;100024.25;6305208;20;2470124;-42
2023/12/09 09:52:23;;;;;;;;;52.00;43.00;;;;;3.60;100.00;100020.59;6274872;20;2493033;-43
2023/12/09 09:54:54;;;;;;;;;53.50;42.50;;;;;3.21;100.00;100023.41;6280087;20;2859696;-43
2023/12/09 09:57:23;;;;;;;;;56.00;45.00;;;;;2.22;100.00;100024.03;6274609;20;2859946;-41
2023/12/09 09:59:58;;;;;;;;;64.50;50.50;;;;;2.56;100.00;100012.66;6277857;20;2856630;-41
2023/12/09 10:02:28;;;;;;;;;58.00;48.50;;;;;3.16;100.00;100027.06;6280456;20;2850393;-40
2023/12/09 10:04:58;;;;;;;;;60.67;42.00;;;;;3.16;100.00;100014.72;6278090;20;2871190;-40
2023/12/09 10:07:27;;;;;;;;;59.00;45.00;;;;;3.85;100.00;100019.91;6312410;20;2861745;-42
2023/12/09 10:09:57;;;;;;;;;63.33;49.33;;;;;3.41;100.00;100014.03;6277163;20;2873453;-41
2023/12/09 10:12:26;;;;;;;;;56.00;43.50;;;;;3.12;100.00;100013.03;6312949;20;2862788;-40
2023/12/09 10:14:56;;;;;;;;;56.50;46.00;;;;;3.16;100.00;100005.84;6279958;20;2862865;-49
2023/12/09 10:17:27;;;;;;;;;57.33;44.33;;;;;4.20;100.00;99999.41;6282604;20;2873350;-40
2023/12/09 10:20:00;;;;;;;;;55.00;41.00;;;;;3.97;100.00;100003.59;6316072;20;2857585;-41
2023/12/09 10:22:29;;;;;;;;;51.50;42.00;;;;;3.96;100.00;99992.09;6284497;20;2852347;-40
2023/12/09 10:24:59;;;;;;;;;48.33;40.33;;;;;3.94;100.00;99993.06;6283907;20;3604869;-41
2023/12/09 10:27:29;;;;;;;;;51.00;40.00;;;;;3.80;100.00;99996.13;6315445;20;3608698;-42
2023/12/09 10:30:00;;;;;;;;;52.33;41.00;;;;;3.84;100.00;99984.47;6313539;20;2856491;-41
2023/12/09 10:32:30;;;;;;;;;55.00;38.33;;;;;3.06;100.00;99971.63;6317506;20;2870146;-41
2023/12/09 10:35:00;;;;;;;;;56.33;45.00;;;;;3.49;100.00;99974.88;6312353;20;2866945;-41
2023/12/09 10:37:32;;;;;;;;;54.00;42.00;;;;;3.44;100.00;99975.00;6313240;20;2577420;-41
2023/12/09 10:40:06;;;;;;;;;56.00;41.50;;;;;2.56;100.00;99963.16;6281947;20;2850304;-40
2023/12/09 10:42:38;;;;;;;;;58.00;41.00;;;;;3.29;100.00;99968.34;6283480;20;2858779;-39
2023/12/09 10:45:08;;;;;;;;;50.50;42.00;;;;;3.17;100.00;99968.69;6278781;20;2491975;-40
2023/12/09 10:47:36;;;;;;;;;52.00;41.50;;;;;2.98;100.00;99967.44;6280304;20;2508610;-41
2023/12/09 10:50:07;;;;;;;;;48.00;42.50;;;;;2.81;100.00;99971.38;6281991;20;2859815;-41
2023/12/09 10:52:36;;;;;;;;;48.67;38.33;;;;;3.30;100.00;99969.22;6285893;20;2871292;-40
2023/12/09 10:55:06;;;;;;;;;58.50;46.00;;;;;3.67;100.00;99960.22;6307708;20;2487892;-39
2023/12/09 10:57:39;;;;;;;;;67.33;50.00;;;;;3.50;100.00;99956.28;6278297;20;3637805;-40
2023/12/09 11:00:11;;;;;;;;;79.33;64.33;;;;;3.40;100.00;99956.59;6308057;20;2853892;-40
2023/12/09 11:02:41;;;;;;;;;57.00;42.00;;;;;3.58;100.00;99944.53;6309985;20;2859675;-40
2023/12/09 11:05:11;;;;;;;;;61.00;47.00;;;;;3.72;100.00;99945.03;6277649;20;2867990;-42
2023/12/09 11:07:40;;;;;;;;;57.00;44.50;;;;;3.35;100.00;99950.53;6244739;20;2497285;-42
2023/12/09 11:10:11;;;;;;;;;61.00;48.33;;;;;4.03;100.00;99944.09;6279982;20;2874240;-41
2023/12/09 11:12:44;;;;;;;;;66.00;49.00;;;;;3.57;100.00;99940.16;6315910;20;2856971;-41